Time;durP1;ratioP1;P1;durP2;ratioP2;P2;SDS_P1;SDS_P2;PMS_P1;PMS_P2;Temp;Humidity;BMP_temperature;BMP_pressure;BME280_temperature;BME280_humidity;BME280_pressure;Samples;Min_cycle;Max_cycle;Signal;HPM_P1;HPM_P2
2021/08/18 00:00:30;;;;;;;36.05;23.30;;;;;;;;;;5091957;28;20490;-62
2021/08/18 00:02:56;;;;;;;34.92;23.85;;;;;;;;;;5073860;28;20032;-62
2021/08/18 00:05:22;;;;;;;36.30;23.35;;;;;;;;;;5073372;28;20046;-63
2021/08/18 00:07:48;;;;;;;35.83;24.35;;;;;;;;;;5092001;28;20063;-63
2021/08/18 00:10:14;;;;;;;35.72;25.20;;;;;;;;;;5091914;28;20072;-60
2021/08/18 00:12:41;;;;;;;38.10;24.17;;;;;;;;;;5091846;28;20024;-63
2021/08/18 00:15:09;;;;;;;36.42;24.38;;;;;;;;;;5091126;28;20020;-60
2021/08/18 00:17:35;;;;;;;34.92;23.30;;;;;;;;;;5073829;28;20051;-63
2021/08/18 00:20:01;;;;;;;35.03;23.13;;;;;;;;;;5073910;28;20055;-61
2021/08/18 00:22:27;;;;;;;38.53;25.88;;;;;;;;;;5091625;28;20115;-64
2021/08/18 00:24:53;;;;;;;39.30;24.60;;;;;;;;;;5091736;28;20031;-62
2021/08/18 00:27:19;;;;;;;36.53;24.92;;;;;;;;;;5073140;28;20027;-61
2021/08/18 00:29:54;;;;;;;36.95;24.45;;;;;;;;;;5091933;28;20024;-59
2021/08/18 00:32:20;;;;;;;36.00;25.30;;;;;;;;;;5091800;28;20038;-59
2021/08/18 00:34:46;;;;;;;36.50;24.10;;;;;;;;;;5091783;28;20024;-60
2021/08/18 00:37:12;;;;;;;35.50;23.50;;;;;;;;;;5091424;28;20024;-61
2021/08/18 00:39:38;;;;;;;36.83;24.90;;;;;;;;;;5073629;28;20545;-61
2021/08/18 00:42:04;;;;;;;35.05;22.98;;;;;;;;;;5091969;28;20079;-60
2021/08/18 00:44:32;;;;;;;36.33;25.17;;;;;;;;;;5091959;28;20059;-63
2021/08/18 00:47:01;;;;;;;36.88;24.70;;;;;;;;;;5090887;28;20032;-62
2021/08/18 00:49:31;;;;;;;38.38;24.27;;;;;;;;;;5091483;28;20020;-60
2021/08/18 00:51:57;;;;;;;38.17;23.35;;;;;;;;;;5091601;28;20032;-61
2021/08/18 00:54:24;;;;;;;37.03;23.70;;;;;;;;;;5091549;28;20028;-61
2021/08/18 00:56:50;;;;;;;35.50;24.77;;;;;;;;;;5072603;28;20509;-60
2021/08/18 00:59:16;;;;;;;35.22;24.52;;;;;;;;;;5073518;28;20442;-61
2021/08/18 01:01:43;;;;;;;36.20;24.40;;;;;;;;;;5092609;28;20532;-62
2021/08/18 01:04:09;;;;;;;37.40;25.52;;;;;;;;;;5095548;28;20024;-61
2021/08/18 01:06:39;;;;;;;38.03;25.20;;;;;;;;;;5094639;28;20024;-62
2021/08/18 01:09:06;;;;;;;40.05;25.65;;;;;;;;;;5095204;28;20027;-61
2021/08/18 01:11:34;;;;;;;36.90;25.13;;;;;;;;;;5076884;28;20035;-61
2021/08/18 01:14:00;;;;;;;39.50;25.67;;;;;;;;;;5094762;28;20024;-61
2021/08/18 01:16:26;;;;;;;34.42;22.98;;;;;;;;;;5094378;28;20030;-62
2021/08/18 01:18:52;;;;;;;37.60;24.67;;;;;;;;;;5095065;28;20032;-61
2021/08/18 01:21:18;;;;;;;37.22;25.25;;;;;;;;;;5076381;28;20035;-62
2021/08/18 01:23:44;;;;;;;40.30;26.08;;;;;;;;;;5095119;28;20095;-62
2021/08/18 01:26:10;;;;;;;40.92;28.48;;;;;;;;;;5076760;28;20029;-62
2021/08/18 01:28:36;;;;;;;39.97;25.23;;;;;;;;;;5094591;28;20027;-61
2021/08/18 01:31:02;;;;;;;35.67;24.70;;;;;;;;;;5094673;28;20405;-60
2021/08/18 01:33:28;;;;;;;36.25;24.83;;;;;;;;;;5076567;28;20032;-63
2021/08/18 01:35:55;;;;;;;35.65;24.38;;;;;;;;;;5093992;28;20020;-61
2021/08/18 01:38:21;;;;;;;37.88;23.83;;;;;;;;;;5076466;28;20028;-61
2021/08/18 01:40:50;;;;;;;33.75;23.00;;;;;;;;;;5094596;28;20051;-61
2021/08/18 01:43:16;;;;;;;37.83;24.75;;;;;;;;;;5076468;28;20074;-61
2021/08/18 01:45:43;;;;;;;38.72;24.77;;;;;;;;;;5093962;28;20111;-61
2021/08/18 01:48:11;;;;;;;36.97;24.67;;;;;;;;;;5094829;28;20020;-61
2021/08/18 01:50:37;;;;;;;35.47;22.45;;;;;;;;;;5095076;28;20103;-61
2021/08/18 01:53:03;;;;;;;32.95;23.05;;;;;;;;;;5094938;28;20021;-61
2021/08/18 01:55:30;;;;;;;36.90;24.65;;;;;;;;;;5076731;28;20502;-61
2021/08/18 01:57:57;;;;;;;36.85;24.42;;;;;;;;;;5095801;28;20387;-62
2021/08/18 02:00:23;;;;;;;37.85;23.50;;;;;;;;;;5078106;28;20048;-59
2021/08/18 02:02:49;;;;;;;33.38;22.83;;;;;;;;;;5094862;28;20027;-62
2021/08/18 02:05:16;;;;;;;35.60;23.77;;;;;;;;;;5093643;28;20027;-63
2021/08/18 02:07:42;;;;;;;38.75;26.65;;;;;;;;;;5094099;28;20063;-61
2021/08/18 02:10:10;;;;;;;38.88;25.42;;;;;;;;;;5093849;28;20484;-62
2021/08/18 02:12:37;;;;;;;40.73;26.20;;;;;;;;;;5076130;28;20102;-61
2021/08/18 02:15:08;;;;;;;34.33;25.60;;;;;;;;;;5093231;28;20077;-62
2021/08/18 02:17:34;;;;;;;35.05;23.63;;;;;;;;;;5093701;28;20438;-62
2021/08/18 02:19:59;;;;;;;31.65;20.67;;;;;;;;;;5093719;28;20020;-61
2021/08/18 02:22:25;;;;;;;31.17;21.05;;;;;;;;;;5093752;28;20032;-61
2021/08/18 02:24:51;;;;;;;32.20;22.38;;;;;;;;;;5093557;28;20123;-61
2021/08/18 02:27:18;;;;;;;33.15;22.77;;;;;;;;;;5092976;28;20123;-63
2021/08/18 02:29:43;;;;;;;37.92;24.75;;;;;;;;;;5075016;28;20526;-59
2021/08/18 02:32:09;;;;;;;35.42;22.75;;;;;;;;;;5093580;28;20032;-63
2021/08/18 02:34:35;;;;;;;34.95;22.85;;;;;;;;;;5093537;28;20495;-62
2021/08/18 02:37:02;;;;;;;36.17;23.15;;;;;;;;;;5074584;28;20042;-60
2021/08/18 02:39:28;;;;;;;32.22;21.30;;;;;;;;;;5093275;28;20028;-63
2021/08/18 02:41:54;;;;;;;32.95;21.38;;;;;;;;;;5075002;28;20028;-61
2021/08/18 02:44:20;;;;;;;32.50;21.73;;;;;;;;;;5075221;28;20026;-63
2021/08/18 02:46:45;;;;;;;31.30;21.27;;;;;;;;;;5074480;28;20484;-60
2021/08/18 02:49:12;;;;;;;31.75;21.17;;;;;;;;;;5093077;28;20035;-62
2021/08/18 02:51:38;;;;;;;32.20;21.20;;;;;;;;;;5075033;28;20028;-62
2021/08/18 02:54:04;;;;;;;30.67;19.83;;;;;;;;;;5074601;28;20035;-60
2021/08/18 02:56:30;;;;;;;33.85;20.30;;;;;;;;;;5092571;28;20024;-62
2021/08/18 02:58:56;;;;;;;28.48;19.63;;;;;;;;;;5093540;28;20119;-60
2021/08/18 03:01:22;;;;;;;32.50;20.02;;;;;;;;;;5093033;28;20024;-61
2021/08/18 03:03:47;;;;;;;30.85;21.27;;;;;;;;;;5092828;28;20095;-63
2021/08/18 03:06:13;;;;;;;29.92;19.23;;;;;;;;;;5074455;28;20030;-63
2021/08/18 03:08:39;;;;;;;30.27;20.23;;;;;;;;;;5075070;28;20024;-62
2021/08/18 03:11:06;;;;;;;28.98;19.35;;;;;;;;;;5075047;28;20082;-60
2021/08/18 03:13:32;;;;;;;28.92;19.27;;;;;;;;;;5093273;28;20476;-60
2021/08/18 03:15:58;;;;;;;28.73;19.02;;;;;;;;;;5092167;28;20036;-62
2021/08/18 03:18:24;;;;;;;30.27;19.85;;;;;;;;;;5092766;28;20020;-63
2021/08/18 03:20:50;;;;;;;29.10;18.98;;;;;;;;;;5092484;28;20024;-61
2021/08/18 03:23:16;;;;;;;27.13;18.98;;;;;;;;;;5074278;28;20031;-61
2021/08/18 03:25:42;;;;;;;28.98;20.60;;;;;;;;;;5090179;28;20031;-63
2021/08/18 03:28:08;;;;;;;26.73;18.45;;;;;;;;;;5073569;28;20020;-61
2021/08/18 03:30:34;;;;;;;31.85;21.13;;;;;;;;;;5092304;28;20031;-61
2021/08/18 03:33:00;;;;;;;27.42;18.17;;;;;;;;;;5072430;28;20434;-61
2021/08/18 03:35:26;;;;;;;26.85;17.88;;;;;;;;;;5091707;28;20038;-62
2021/08/18 03:37:52;;;;;;;26.48;17.23;;;;;;;;;;5074630;28;20028;-63
2021/08/18 03:40:18;;;;;;;29.05;19.92;;;;;;;;;;5074303;28;20031;-64
2021/08/18 03:42:44;;;;;;;29.80;18.52;;;;;;;;;;5092233;28;20434;-61
2021/08/18 03:45:10;;;;;;;30.08;19.05;;;;;;;;;;5091523;28;20031;-61
2021/08/18 03:47:38;;;;;;;29.90;19.33;;;;;;;;;;5091996;28;20034;-61
2021/08/18 03:50:04;;;;;;;30.08;19.38;;;;;;;;;;5092202;28;20410;-62
2021/08/18 03:52:30;;;;;;;27.10;18.70;;;;;;;;;;5091906;28;20032;-62
2021/08/18 03:54:57;;;;;;;27.65;18.05;;;;;;;;;;5092335;28;20078;-62
2021/08/18 03:57:22;;;;;;;32.30;19.33;;;;;;;;;;5087136;28;20031;-61
2021/08/18 03:59:48;;;;;;;28.65;18.35;;;;;;;;;;5074136;28;20028;-61
2021/08/18 04:02:15;;;;;;;31.60;19.58;;;;;;;;;;5092759;28;20054;-62
2021/08/18 04:04:41;;;;;;;30.38;18.92;;;;;;;;;;5073775;28;20035;-62
2021/08/18 04:07:07;;;;;;;30.25;20.42;;;;;;;;;;5091501;28;20431;-62
2021/08/18 04:09:33;;;;;;;32.25;20.60;;;;;;;;;;5073655;28;20020;-60
2021/08/18 04:11:58;;;;;;;31.35;19.95;;;;;;;;;;5073757;28;20480;-60
2021/08/18 04:14:24;;;;;;;31.98;20.52;;;;;;;;;;5073885;28;20032;-59
2021/08/18 04:16:50;;;;;;;30.63;20.35;;;;;;;;;;5091077;28;20051;-61
2021/08/18 04:19:16;;;;;;;30.75;19.70;;;;;;;;;;5073643;28;20049;-61
2021/08/18 04:21:42;;;;;;;32.08;20.83;;;;;;;;;;5091738;28;20028;-62
2021/08/18 04:24:08;;;;;;;33.97;21.23;;;;;;;;;;5091858;28;20073;-63
2021/08/18 04:26:34;;;;;;;28.38;19.77;;;;;;;;;;5091106;28;20054;-55
2021/08/18 04:29:00;;;;;;;32.90;21.83;;;;;;;;;;5091811;28;20471;-61
2021/08/18 04:31:26;;;;;;;33.38;21.40;;;;;;;;;;5089719;28;20084;-61
2021/08/18 04:33:52;;;;;;;31.60;20.77;;;;;;;;;;5091630;28;20031;-64
2021/08/18 04:36:18;;;;;;;31.13;20.55;;;;;;;;;;5091523;28;20047;-61
2021/08/18 04:38:44;;;;;;;30.75;20.55;;;;;;;;;;5095588;28;20024;-63
2021/08/18 04:41:10;;;;;;;31.15;19.88;;;;;;;;;;5077598;28;20032;-61
2021/08/18 04:43:36;;;;;;;33.17;22.52;;;;;;;;;;5095640;28;20024;-60
2021/08/18 04:46:02;;;;;;;31.25;19.35;;;;;;;;;;5076442;28;20472;-63
2021/08/18 04:48:28;;;;;;;31.50;20.92;;;;;;;;;;5095630;28;20115;-60
2021/08/18 04:50:54;;;;;;;31.02;20.45;;;;;;;;;;5095515;28;20066;-61
2021/08/18 04:53:20;;;;;;;32.25;21.63;;;;;;;;;;5095316;28;20029;-60
2021/08/18 04:55:46;;;;;;;34.65;21.70;;;;;;;;;;5094681;28;20384;-61
2021/08/18 04:58:12;;;;;;;32.75;21.55;;;;;;;;;;5095163;28;20099;-60
2021/08/18 05:00:38;;;;;;;35.90;23.65;;;;;;;;;;5076584;28;20062;-62
2021/08/18 05:03:04;;;;;;;32.25;21.65;;;;;;;;;;5094896;28;20073;-62
2021/08/18 05:05:30;;;;;;;32.65;21.17;;;;;;;;;;5076111;28;20028;-62
2021/08/18 05:07:58;;;;;;;31.52;21.42;;;;;;;;;;5095050;28;20028;-62
2021/08/18 05:10:25;;;;;;;32.40;22.38;;;;;;;;;;5094700;28;20027;-63
2021/08/18 05:12:51;;;;;;;30.38;19.10;;;;;;;;;;5094598;28;20548;-62
2021/08/18 05:15:17;;;;;;;34.72;22.58;;;;;;;;;;5075787;28;20115;-60
2021/08/18 05:17:44;;;;;;;31.00;21.70;;;;;;;;;;5094558;28;20059;-61
2021/08/18 05:20:11;;;;;;;32.83;21.48;;;;;;;;;;5094733;28;20028;-62
2021/08/18 05:22:37;;;;;;;31.50;21.70;;;;;;;;;;5094619;28;20072;-62
2021/08/18 05:25:04;;;;;;;32.90;21.80;;;;;;;;;;5094232;28;20424;-60
2021/08/18 05:27:30;;;;;;;35.05;23.17;;;;;;;;;;5094248;28;20024;-62
2021/08/18 05:29:56;;;;;;;33.00;21.98;;;;;;;;;;5094331;28;20039;-64
2021/08/18 05:32:22;;;;;;;35.78;22.95;;;;;;;;;;5074863;28;20404;-58
2021/08/18 05:34:48;;;;;;;29.58;21.02;;;;;;;;;;5094362;28;20036;-60
2021/08/18 05:37:14;;;;;;;33.13;21.88;;;;;;;;;;5093605;28;20043;-60
2021/08/18 05:39:40;;;;;;;28.90;20.13;;;;;;;;;;5094436;28;20099;-59
2021/08/18 05:42:06;;;;;;;32.25;21.65;;;;;;;;;;5076039;28;20020;-62
2021/08/18 05:44:32;;;;;;;31.55;21.45;;;;;;;;;;5094015;28;20032;-62
2021/08/18 05:46:58;;;;;;;32.17;22.55;;;;;;;;;;5093525;28;20024;-62
2021/08/18 05:49:24;;;;;;;32.83;23.05;;;;;;;;;;5092924;28;20030;-61
2021/08/18 05:51:51;;;;;;;31.83;21.75;;;;;;;;;;5093851;28;20035;-61
2021/08/18 05:54:17;;;;;;;32.28;21.92;;;;;;;;;;5094017;28;20051;-61
2021/08/18 05:56:43;;;;;;;33.72;22.08;;;;;;;;;;5105644;27;20016;-56
2021/08/18 05:59:09;;;;;;;36.38;24.60;;;;;;;;;;5130254;27;20483;-61
2021/08/18 06:01:35;;;;;;;37.78;23.58;;;;;;;;;;5111428;27;20103;-61
2021/08/18 06:04:01;;;;;;;34.20;23.95;;;;;;;;;;5091416;28;20020;-56
2021/08/18 06:06:28;;;;;;;33.47;23.58;;;;;;;;;;5092685;28;20077;-60
2021/08/18 06:08:54;;;;;;;31.33;22.90;;;;;;;;;;5093437;28;20020;-61
2021/08/18 06:11:20;;;;;;;32.40;22.02;;;;;;;;;;5093040;28;20511;-62
2021/08/18 06:13:46;;;;;;;37.45;23.15;;;;;;;;;;5107705;28;20109;-63
2021/08/18 06:16:12;;;;;;;34.17;24.13;;;;;;;;;;5094350;28;20479;-62
2021/08/18 06:18:38;;;;;;;38.03;23.85;;;;;;;;;;5095109;28;20070;-62
2021/08/18 06:21:04;;;;;;;37.50;22.40;;;;;;;;;;5113443;28;20032;-62
2021/08/18 06:23:32;;;;;;;33.67;22.40;;;;;;;;;;5113812;28;20804;-62
2021/08/18 06:25:58;;;;;;;33.60;21.55;;;;;;;;;;5112313;28;20077;-62
2021/08/18 06:28:25;;;;;;;33.55;23.15;;;;;;;;;;5094385;28;20386;-63
2021/08/18 06:30:51;;;;;;;35.50;24.65;;;;;;;;;;5102893;22;20085;-62
2021/08/18 06:33:17;;;;;;;39.15;23.35;;;;;;;;;;5074655;28;20024;-63
2021/08/18 06:35:43;;;;;;;32.65;22.88;;;;;;;;;;5091615;28;20031;-63
2021/08/18 06:38:10;;;;;;;32.08;22.48;;;;;;;;;;5092023;28;20027;-64
2021/08/18 06:40:36;;;;;;;33.05;22.38;;;;;;;;;;5069229;28;20020;-62
2021/08/18 06:43:02;;;;;;;31.65;23.63;;;;;;;;;;5092087;28;20403;-63
2021/08/18 06:45:29;;;;;;;36.08;23.70;;;;;;;;;;5091279;28;20030;-64
2021/08/18 06:47:55;;;;;;;32.55;20.88;;;;;;;;;;5073811;28;20418;-63
2021/08/18 06:50:21;;;;;;;30.05;21.33;;;;;;;;;;5073694;28;20027;-61
2021/08/18 06:52:47;;;;;;;31.60;22.33;;;;;;;;;;5091683;28;20434;-62
2021/08/18 06:55:14;;;;;;;29.80;21.20;;;;;;;;;;5072937;28;20079;-62
2021/08/18 06:57:40;;;;;;;32.80;20.80;;;;;;;;;;5074467;28;20150;-61
2021/08/18 07:00:06;;;;;;;28.65;20.13;;;;;;;;;;5053625;28;20388;-63
2021/08/18 07:02:32;;;;;;;27.27;20.52;;;;;;;;;;5071312;28;20054;-62
2021/08/18 07:05:03;;;;;;;29.20;20.05;;;;;;;;;;5066994;28;20021;-62
2021/08/18 07:07:29;;;;;;;35.88;21.67;;;;;;;;;;5070488;28;20075;-61
2021/08/18 07:09:55;;;;;;;29.92;20.92;;;;;;;;;;5053297;28;20060;-66
2021/08/18 07:12:21;;;;;;;30.23;21.27;;;;;;;;;;5053614;28;20024;-63
2021/08/18 07:14:47;;;;;;;29.85;20.65;;;;;;;;;;5070848;28;20055;-58
2021/08/18 07:17:13;;;;;;;30.58;20.90;;;;;;;;;;5052556;28;20387;-64
2021/08/18 07:19:39;;;;;;;29.13;19.77;;;;;;;;;;5052768;28;20024;-63
2021/08/18 07:22:05;;;;;;;29.27;19.52;;;;;;;;;;5066932;28;20074;-63
2021/08/18 07:24:34;;;;;;;25.45;17.95;;;;;;;;;;5070712;28;20051;-63
2021/08/18 07:27:00;;;;;;;29.40;18.95;;;;;;;;;;5051924;28;20089;-64
2021/08/18 07:29:26;;;;;;;26.98;18.02;;;;;;;;;;5070674;28;20095;-64
2021/08/18 07:31:52;;;;;;;25.85;16.83;;;;;;;;;;5070354;28;20032;-63
2021/08/18 07:34:19;;;;;;;25.67;17.30;;;;;;;;;;5070747;28;20032;-62
2021/08/18 07:36:45;;;;;;;23.33;15.48;;;;;;;;;;5069796;28;20222;-62
2021/08/18 07:39:11;;;;;;;25.25;16.17;;;;;;;;;;5052691;28;20060;-62
2021/08/18 07:41:37;;;;;;;26.27;16.65;;;;;;;;;;5070314;28;20031;-62
2021/08/18 07:44:03;;;;;;;24.77;16.40;;;;;;;;;;5052331;28;20484;-64
2021/08/18 07:46:29;;;;;;;24.52;16.55;;;;;;;;;;5070206;28;20089;-63
2021/08/18 07:48:54;;;;;;;23.98;14.75;;;;;;;;;;5052919;28;20380;-66
2021/08/18 07:51:20;;;;;;;22.10;14.88;;;;;;;;;;5070796;28;20032;-65
2021/08/18 07:53:46;;;;;;;22.15;13.23;;;;;;;;;;5064651;28;20025;-65
2021/08/18 07:56:12;;;;;;;23.67;13.98;;;;;;;;;;5034254;28;20098;-65
2021/08/18 07:58:38;;;;;;;21.38;13.15;;;;;;;;;;5052326;28;20481;-66
2021/08/18 08:01:04;;;;;;;21.55;13.00;;;;;;;;;;5052411;28;20024;-66
2021/08/18 08:03:31;;;;;;;22.50;13.18;;;;;;;;;;5070612;28;20504;-66
2021/08/18 08:05:57;;;;;;;22.05;13.77;;;;;;;;;;5052039;28;20063;-65
2021/08/18 08:08:23;;;;;;;22.30;13.43;;;;;;;;;;5070573;28;20054;-65
2021/08/18 08:10:49;;;;;;;23.73;13.00;;;;;;;;;;5070380;28;20059;-65
2021/08/18 08:13:15;;;;;;;23.58;13.90;;;;;;;;;;5056328;28;20110;-66
2021/08/18 08:15:41;;;;;;;19.90;12.75;;;;;;;;;;5073690;28;20074;-59
2021/08/18 08:18:07;;;;;;;22.27;13.13;;;;;;;;;;5073678;28;20030;-59
2021/08/18 08:20:33;;;;;;;21.15;11.63;;;;;;;;;;5071418;28;20079;-59
2021/08/18 08:23:01;;;;;;;20.83;12.15;;;;;;;;;;5053385;28;20061;-60
2021/08/18 08:25:27;;;;;;;19.00;11.25;;;;;;;;;;5071056;28;20111;-62
2021/08/18 08:27:53;;;;;;;19.60;11.32;;;;;;;;;;5069955;28;20020;-61
2021/08/18 08:30:19;;;;;;;20.52;12.07;;;;;;;;;;5071177;28;20596;-62
2021/08/18 08:32:45;;;;;;;20.30;11.07;;;;;;;;;;5053380;28;20033;-61
2021/08/18 08:35:12;;;;;;;20.65;11.02;;;;;;;;;;5072862;28;20036;-61
2021/08/18 08:37:38;;;;;;;19.40;10.70;;;;;;;;;;5055779;28;20041;-62
2021/08/18 08:40:04;;;;;;;22.08;10.55;;;;;;;;;;5073647;28;20101;-61
2021/08/18 08:42:32;;;;;;;19.33;10.18;;;;;;;;;;5055558;28;20115;-61
2021/08/18 08:45:00;;;;;;;19.00;9.90;;;;;;;;;;5073433;28;20028;-61
2021/08/18 08:47:26;;;;;;;17.45;10.07;;;;;;;;;;5054992;28;20024;-61
2021/08/18 08:49:52;;;;;;;27.33;10.40;;;;;;;;;;5055182;28;20039;-61
2021/08/18 08:52:18;;;;;;;18.10;9.52;;;;;;;;;;5072815;28;20028;-62
2021/08/18 08:54:44;;;;;;;16.88;8.10;;;;;;;;;;5073014;28;20093;-62
2021/08/18 08:57:11;;;;;;;17.83;9.57;;;;;;;;;;5072475;28;20044;-62
2021/08/18 08:59:37;;;;;;;16.48;8.93;;;;;;;;;;5073095;28;20024;-62
2021/08/18 09:02:03;;;;;;;18.52;8.43;;;;;;;;;;5054563;28;20032;-62
2021/08/18 09:04:34;;;;;;;17.73;9.27;;;;;;;;;;5073017;28;20020;-59
2021/08/18 09:07:04;;;;;;;17.45;8.20;;;;;;;;;;5072449;28;20451;-62
2021/08/18 09:09:31;;;;;;;16.92;7.90;;;;;;;;;;5072787;28;20020;-61
2021/08/18 09:12:23;;;;;;;16.10;8.10;;;;;;;;;;5054687;28;20052;-62
2021/08/18 09:14:49;;;;;;;16.45;8.55;;;;;;;;;;5069845;28;20080;-62
2021/08/18 09:17:33;;;;;;;16.17;7.88;;;;;;;;;;5054358;28;20024;-63
2021/08/18 09:20:01;;;;;;;16.92;8.30;;;;;;;;;;5072849;28;20047;-62
2021/08/18 09:22:28;;;;;;;17.15;7.97;;;;;;;;;;5072516;28;20071;-63
2021/08/18 09:25:20;;;;;;;16.02;8.07;;;;;;;;;;5072093;28;20050;-61
2021/08/18 09:27:47;;;;;;;17.10;8.27;;;;;;;;;;5068700;28;20032;-63
2021/08/18 09:30:19;;;;;;;16.23;8.20;;;;;;;;;;5072844;28;20042;-61
2021/08/18 09:32:45;;;;;;;16.70;8.05;;;;;;;;;;5072392;28;20024;-61
2021/08/18 09:35:12;;;;;;;17.55;7.97;;;;;;;;;;5072340;28;20476;-61
2021/08/18 09:37:39;;;;;;;15.65;8.38;;;;;;;;;;5072764;28;20038;-61
2021/08/18 09:40:44;;;;;;;16.65;8.43;;;;;;;;;;5073002;28;20052;-61
2021/08/18 09:43:12;;;;;;;16.13;8.45;;;;;;;;;;5010351;28;20505;-62
2021/08/18 09:45:39;;;;;;;;;;;;;;;;;;5010495;28;20042;-61
2021/08/18 09:48:05;;;;;;;16.38;8.00;;;;;;;;;;5041152;28;20368;-59
2021/08/18 09:50:40;;;;;;;16.80;8.55;;;;;;;;;;5072763;28;20399;-61
2021/08/18 09:53:08;;;;;;;17.70;9.00;;;;;;;;;;5072411;28;20021;-62
2021/08/18 09:55:34;;;;;;;14.98;8.73;;;;;;;;;;5071353;28;20067;-61
2021/08/18 09:58:00;;;;;;;15.52;8.82;;;;;;;;;;5072000;28;20021;-61
2021/08/18 10:00:26;;;;;;;15.57;8.57;;;;;;;;;;5072219;28;20023;-61
2021/08/18 10:02:53;;;;;;;16.08;8.80;;;;;;;;;;5072198;28;20028;-61
2021/08/18 10:05:19;;;;;;;17.02;9.27;;;;;;;;;;5053626;28;20481;-61
2021/08/18 10:07:46;;;;;;;16.63;9.70;;;;;;;;;;5072144;28;20370;-61
2021/08/18 10:10:12;;;;;;;16.17;8.90;;;;;;;;;;5068971;28;20021;-61
2021/08/18 10:12:38;;;;;;;16.48;9.43;;;;;;;;;;5051266;28;20558;-61
2021/08/18 10:15:05;;;;;;;16.75;9.32;;;;;;;;;;5070426;28;20032;-62
2021/08/18 10:17:31;;;;;;;15.23;9.40;;;;;;;;;;5071298;28;20568;-61
2021/08/18 10:19:58;;;;;;;16.15;10.57;;;;;;;;;;5052878;28;20119;-62
2021/08/18 10:22:28;;;;;;;16.45;10.25;;;;;;;;;;5071929;28;20421;-59
2021/08/18 10:24:54;;;;;;;16.63;9.73;;;;;;;;;;5071869;28;20107;-63
2021/08/18 10:27:56;;;;;;;16.67;9.70;;;;;;;;;;5071067;28;20025;-62
2021/08/18 10:30:23;;;;;;;17.10;9.00;;;;;;;;;;5009299;28;20029;-62
2021/08/18 10:32:49;;;;;;;15.68;9.10;;;;;;;;;;5059343;28;20041;-61
2021/08/18 10:35:34;;;;;;;16.13;9.27;;;;;;;;;;5068483;28;20099;-61
2021/08/18 10:38:18;;;;;;;14.60;8.45;;;;;;;;;;5071058;28;20366;-60
2021/08/18 10:40:44;;;;;;;15.57;9.50;;;;;;;;;;5070770;28;20047;-62
2021/08/18 10:43:10;;;;;;;14.98;9.07;;;;;;;;;;5068795;28;20025;-58
2021/08/18 10:45:37;;;;;;;15.63;9.68;;;;;;;;;;5052649;28;20017;-61
2021/08/18 10:48:04;;;;;;;16.17;9.57;;;;;;;;;;5070651;28;20059;-61
2021/08/18 10:50:40;;;;;;;15.35;10.00;;;;;;;;;;5053035;28;20029;-61
2021/08/18 10:53:26;;;;;;;15.13;10.63;;;;;;;;;;5071497;28;20075;-61
2021/08/18 10:55:52;;;;;;;15.70;10.68;;;;;;;;;;5070401;28;20120;-60
2021/08/18 10:58:27;;;;;;;16.00;10.40;;;;;;;;;;5053537;28;20496;-61
2021/08/18 11:00:53;;;;;;;18.73;10.38;;;;;;;;;;5070805;28;20089;-61
2021/08/18 11:03:26;;;;;;;15.63;10.07;;;;;;;;;;5071088;28;20029;-62
2021/08/18 11:05:52;;;;;;;15.55;9.90;;;;;;;;;;5070301;28;20039;-62
2021/08/18 11:08:25;;;;;;;16.27;10.13;;;;;;;;;;5071029;28;20031;-62
2021/08/18 11:10:52;;;;;;;15.75;10.07;;;;;;;;;;5071181;28;20016;-61
2021/08/18 11:13:19;;;;;;;16.98;9.63;;;;;;;;;;5052981;28;20159;-62
2021/08/18 11:15:49;;;;;;;17.65;10.25;;;;;;;;;;5052380;28;20080;-62
2021/08/18 11:18:17;;;;;;;17.55;10.35;;;;;;;;;;5052836;28;20036;-61
2021/08/18 11:20:46;;;;;;;16.95;10.00;;;;;;;;;;5070337;28;20097;-61
2021/08/18 11:23:12;;;;;;;15.35;9.73;;;;;;;;;;5070361;28;20024;-62
2021/08/18 11:25:45;;;;;;;16.58;9.77;;;;;;;;;;5052392;28;20029;-61
2021/08/18 11:28:25;;;;;;;16.33;10.00;;;;;;;;;;5069282;28;20020;-63
2021/08/18 11:30:58;;;;;;;16.48;9.55;;;;;;;;;;5070581;28;20029;-63
2021/08/18 11:33:24;;;;;;;14.85;9.80;;;;;;;;;;5052667;28;20389;-63
2021/08/18 11:35:50;;;;;;;15.43;9.98;;;;;;;;;;4714848;28;10000368;-63
2021/08/18 11:38:17;;;;;;;15.27;9.93;;;;;;;;;;5067359;28;20032;-63
2021/08/18 11:40:43;;;;;;;19.75;10.85;;;;;;;;;;5056170;28;20416;-63
2021/08/18 11:43:09;;;;;;;14.77;10.32;;;;;;;;;;5058827;28;20039;-62
2021/08/18 11:45:37;;;;;;;16.23;10.10;;;;;;;;;;5064955;28;20052;-63
2021/08/18 11:48:10;;;;;;;15.82;10.20;;;;;;;;;;5057840;28;20029;-66
2021/08/18 11:50:36;;;;;;;15.70;10.40;;;;;;;;;;5037574;28;20029;-63
2021/08/18 11:53:04;;;;;;;15.48;10.82;;;;;;;;;;5038092;28;20005;-63
2021/08/18 11:55:30;;;;;;;15.55;11.00;;;;;;;;;;5056712;28;20071;-62
2021/08/18 11:57:57;;;;;;;15.63;11.02;;;;;;;;;;5058911;28;20042;-61
2021/08/18 12:00:23;;;;;;;14.75;10.27;;;;;;;;;;5058821;28;20040;-62
2021/08/18 12:02:49;;;;;;;15.45;10.52;;;;;;;;;;5056767;28;20052;-61
2021/08/18 12:05:15;;;;;;;16.48;10.82;;;;;;;;;;5057250;28;20087;-62
2021/08/18 12:07:42;;;;;;;14.93;9.93;;;;;;;;;;5059135;28;20029;-63
2021/08/18 12:10:26;;;;;;;17.05;10.43;;;;;;;;;;5058013;28;20016;-62
2021/08/18 12:13:05;;;;;;;15.23;10.82;;;;;;;;;;5045770;28;20040;-63
2021/08/18 12:15:33;;;;;;;16.85;10.90;;;;;;;;;;5068158;28;20116;-64
2021/08/18 12:17:59;;;;;;;15.88;11.07;;;;;;;;;;5068261;28;20021;-64
2021/08/18 12:20:35;;;;;;;16.30;11.05;;;;;;;;;;5068087;28;20032;-63
2021/08/18 12:23:02;;;;;;;16.02;11.35;;;;;;;;;;5067430;28;20029;-63
2021/08/18 12:25:30;;;;;;;15.45;11.18;;;;;;;;;;5049150;28;20020;-64
2021/08/18 12:28:13;;;;;;;15.25;11.38;;;;;;;;;;5067945;28;20028;-63
2021/08/18 12:31:01;;;;;;;15.43;11.48;;;;;;;;;;5061796;28;20056;-60
2021/08/18 12:33:28;;;;;;;16.00;11.70;;;;;;;;;;5040230;28;20361;-63
2021/08/18 12:36:23;;;;;;;16.10;12.40;;;;;;;;;;5086526;22;20101;-64
2021/08/18 12:38:52;;;;;;;16.08;11.70;;;;;;;;;;5053881;28;20396;-64
2021/08/18 12:41:19;;;;;;;15.93;11.38;;;;;;;;;;5067698;28;20023;-61
2021/08/18 12:43:46;;;;;;;16.65;10.88;;;;;;;;;;5067784;28;20017;-61
2021/08/18 12:46:22;;;;;;;16.77;11.40;;;;;;;;;;5065726;28;20024;-63
2021/08/18 12:48:48;;;;;;;16.08;11.07;;;;;;;;;;5066820;28;20058;-62
2021/08/18 12:51:14;;;;;;;16.85;11.63;;;;;;;;;;5066645;28;20024;-62
2021/08/18 12:53:40;;;;;;;18.40;11.55;;;;;;;;;;5067999;28;20779;-62
2021/08/18 12:56:07;;;;;;;16.40;10.40;;;;;;;;;;5066071;28;20009;-62
2021/08/18 12:58:33;;;;;;;16.33;11.10;;;;;;;;;;5087826;28;20012;-63
2021/08/18 13:00:59;;;;;;;16.70;10.88;;;;;;;;;;5090874;28;20613;-63
2021/08/18 13:03:26;;;;;;;17.02;11.02;;;;;;;;;;5091968;28;20625;-63
2021/08/18 13:05:52;;;;;;;18.60;11.75;;;;;;;;;;5090082;28;20052;-63
2021/08/18 13:08:19;;;;;;;18.90;12.45;;;;;;;;;;5091965;28;20028;-63
2021/08/18 13:10:46;;;;;;;17.95;12.25;;;;;;;;;;5091227;28;20078;-63
2021/08/18 13:13:12;;;;;;;18.73;13.13;;;;;;;;;;5091697;28;20031;-63
2021/08/18 13:15:38;;;;;;;19.90;13.50;;;;;;;;;;5091319;28;20553;-63
2021/08/18 13:18:04;;;;;;;20.15;14.52;;;;;;;;;;5091662;28;20028;-63
2021/08/18 13:20:30;;;;;;;21.80;13.88;;;;;;;;;;5090194;28;20024;-62
2021/08/18 13:22:55;;;;;;;19.65;14.50;;;;;;;;;;5090001;28;20036;-62
2021/08/18 13:25:22;;;;;;;21.65;15.18;;;;;;;;;;5089731;28;20429;-63
2021/08/18 13:27:48;;;;;;;19.75;13.48;;;;;;;;;;5091401;28;20073;-62
2021/08/18 13:30:14;;;;;;;21.52;14.65;;;;;;;;;;5089885;28;20059;-62
2021/08/18 13:32:41;;;;;;;21.92;15.50;;;;;;;;;;5079983;28;20035;-60
2021/08/18 13:35:07;;;;;;;21.73;15.48;;;;;;;;;;5086909;28;20020;-57
2021/08/18 13:37:34;;;;;;;22.60;14.82;;;;;;;;;;5091352;28;20035;-62
2021/08/18 13:40:00;;;;;;;21.42;14.93;;;;;;;;;;5090484;28;20027;-61
2021/08/18 13:42:26;;;;;;;23.55;15.23;;;;;;;;;;5090920;28;20031;-62
2021/08/18 13:44:52;;;;;;;24.33;15.25;;;;;;;;;;5079793;28;20047;-63
2021/08/18 13:47:18;;;;;;;21.30;14.40;;;;;;;;;;5078711;28;20012;-62
2021/08/18 13:49:45;;;;;;;23.40;16.23;;;;;;;;;;5079010;28;20020;-62
2021/08/18 13:52:11;;;;;;;21.08;15.23;;;;;;;;;;5078556;28;20020;-63
2021/08/18 13:54:37;;;;;;;22.30;14.27;;;;;;;;;;5080429;28;20093;-62
2021/08/18 13:57:03;;;;;;;20.35;14.15;;;;;;;;;;5075625;28;20421;-61
2021/08/18 13:59:29;;;;;;;21.48;13.23;;;;;;;;;;5068638;28;20451;-62
2021/08/18 14:01:55;;;;;;;20.20;14.55;;;;;;;;;;5070489;28;20021;-62
2021/08/18 14:04:21;;;;;;;19.50;13.48;;;;;;;;;;5069901;28;20025;-62
2021/08/18 14:06:47;;;;;;;20.45;13.85;;;;;;;;;;5069119;28;20082;-61
2021/08/18 14:09:14;;;;;;;20.80;13.88;;;;;;;;;;5075420;28;20013;-63
2021/08/18 14:11:40;;;;;;;20.00;13.82;;;;;;;;;;5082586;28;20024;-59
2021/08/18 14:14:07;;;;;;;19.60;13.35;;;;;;;;;;5077882;28;20053;-63
2021/08/18 14:16:33;;;;;;;19.08;13.40;;;;;;;;;;5078162;28;20089;-63
2021/08/18 14:18:59;;;;;;;19.45;13.32;;;;;;;;;;5078102;28;20250;-64